createdAt,value
2018-04-09T00:01:38.547Z,31.80
2018-04-09T00:04:06.038Z,35.07
2018-04-09T00:06:33.510Z,31.87
2018-04-09T00:09:01.758Z,31.60
2018-04-09T00:11:29.227Z,32.97
2018-04-09T00:13:56.731Z,33.03
2018-04-09T00:16:24.300Z,29.30
2018-04-09T00:18:51.778Z,30.67
2018-04-09T00:21:19.334Z,30.93
2018-04-09T00:23:46.806Z,29.40
2018-04-09T00:26:14.740Z,32.63
2018-04-09T00:28:42.209Z,32.93
2018-04-09T00:31:09.683Z,33.60
2018-04-09T00:33:37.155Z,37.23
2018-04-09T00:36:04.622Z,34.43
2018-04-09T00:38:32.096Z,30.23
2018-04-09T00:41:00.340Z,30.77
2018-04-09T00:43:27.793Z,29.83
2018-04-09T00:45:55.265Z,31.77
2018-04-09T00:48:22.775Z,30.10
2018-04-09T00:50:51.006Z,32.90
2018-04-09T00:53:19.142Z,33.70
2018-04-09T00:55:46.611Z,35.93
2018-04-09T00:58:14.073Z,28.83
2018-04-09T01:00:41.555Z,34.57
2018-04-09T01:03:09.015Z,29.60
2018-04-09T01:05:36.495Z,34.03
2018-04-09T01:08:04.722Z,25.43
2018-04-09T01:10:32.189Z,27.03
2018-04-09T01:12:59.656Z,33.13
2018-04-09T01:15:27.126Z,31.63
2018-04-09T01:17:54.590Z,27.10
2018-04-09T01:20:22.063Z,31.33
2018-04-09T01:22:50.297Z,27.87
2018-04-09T01:25:17.769Z,31.07
2018-04-09T01:27:45.242Z,29.97
2018-04-09T01:30:12.714Z,30.87
2018-04-09T01:32:40.951Z,28.60
2018-04-09T01:35:08.422Z,30.50
2018-04-09T01:37:35.897Z,30.70
2018-04-09T01:40:04.142Z,35.03
2018-04-09T01:42:31.614Z,32.50
2018-04-09T01:44:59.099Z,30.67
2018-04-09T01:47:27.335Z,28.40
2018-04-09T01:49:55.279Z,30.27
2018-04-09T01:52:22.737Z,27.17
2018-04-09T01:54:50.239Z,27.50
2018-04-09T01:57:17.708Z,27.00
2018-04-09T01:59:45.183Z,29.73
2018-04-09T02:02:13.410Z,33.17
2018-04-09T02:04:40.894Z,35.17
2018-04-09T02:07:08.358Z,32.70
2018-04-09T02:09:35.833Z,33.20
2018-04-09T02:12:04.063Z,32.87
2018-04-09T02:14:31.554Z,32.33
2018-04-09T02:16:59.800Z,28.10
2018-04-09T02:19:27.278Z,28.43
2018-04-09T02:21:54.751Z,26.30
2018-04-09T02:24:22.985Z,32.20
2018-04-09T02:26:50.460Z,28.53
2018-04-09T02:29:17.947Z,27.63
2018-04-09T02:31:46.196Z,31.53
2018-04-09T02:34:13.687Z,28.87
2018-04-09T02:36:41.942Z,32.40
2018-04-09T02:39:09.401Z,28.30
2018-04-09T02:41:36.877Z,39.10
2018-04-09T02:44:05.124Z,33.23
2018-04-09T02:46:32.603Z,35.77
2018-04-09T02:49:00.840Z,28.33
2018-04-09T02:51:28.326Z,35.67
2018-04-09T02:53:55.807Z,29.67
2018-04-09T02:56:24.060Z,26.77
2018-04-09T02:58:51.536Z,31.03
2018-04-09T03:01:19.779Z,31.00
2018-04-09T03:03:47.252Z,29.67
2018-04-09T03:06:14.739Z,34.03
2018-04-09T03:08:42.995Z,30.10
2018-04-09T03:11:10.470Z,33.10
2018-04-09T03:13:38.702Z,31.63
2018-04-09T03:16:06.179Z,25.00
2018-04-09T03:18:33.649Z,30.43
2018-04-09T03:21:01.130Z,32.50
2018-04-09T03:23:29.384Z,28.47
2018-04-09T03:25:56.868Z,27.67
2018-04-09T03:28:25.100Z,25.67
2018-04-09T03:30:52.576Z,24.73
2018-04-09T03:33:20.039Z,24.37
2018-04-09T03:35:48.282Z,23.90
2018-04-09T03:38:15.763Z,24.60
2018-04-09T03:40:43.234Z,25.53
2018-04-09T03:43:11.477Z,24.50
2018-04-09T03:45:38.956Z,27.50
2018-04-09T03:48:06.418Z,25.33
2018-04-09T03:50:33.900Z,27.97
2018-04-09T03:53:01.372Z,27.67
2018-04-09T03:55:28.845Z,25.40
2018-04-09T03:57:56.312Z,24.43
2018-04-09T04:00:24.561Z,27.50
2018-04-09T04:02:52.036Z,28.37
2018-04-09T04:05:19.515Z,31.40
2018-04-09T04:07:46.979Z,24.10
2018-04-09T04:10:14.464Z,21.37
2018-04-09T04:12:41.930Z,18.83
2018-04-09T04:15:10.187Z,20.83
2018-04-09T04:17:49.554Z,23.13
2018-04-09T04:20:29.639Z,23.00
2018-04-09T04:22:57.102Z,22.73
2018-04-09T04:25:24.585Z,28.80
2018-04-09T04:27:52.055Z,33.93
2018-04-09T04:30:19.533Z,20.00
2018-04-09T04:32:47.771Z,22.87
2018-04-09T04:35:15.249Z,23.80
2018-04-09T04:37:42.728Z,23.10
2018-04-09T04:40:10.980Z,19.17
2018-04-09T04:42:38.466Z,21.37
2018-04-09T04:45:06.698Z,21.57
2018-04-09T04:47:34.192Z,23.30
2018-04-09T04:50:02.427Z,29.50
2018-04-09T04:52:29.895Z,28.30
2018-04-09T04:54:57.357Z,24.47
2018-04-09T04:57:24.838Z,24.50
2018-04-09T04:59:53.083Z,24.30
2018-04-09T05:02:20.572Z,26.40
2018-04-09T05:04:48.817Z,28.90
2018-04-09T05:07:16.292Z,27.90
2018-04-09T05:09:43.758Z,27.63
2018-04-09T05:12:11.255Z,28.07
2018-04-09T05:14:38.726Z,27.00
2018-04-09T05:17:06.212Z,29.10
2018-04-09T05:19:33.684Z,24.03
2018-04-09T05:22:01.159Z,27.63
2018-04-09T05:24:29.402Z,23.70
2018-04-09T05:26:56.877Z,21.57
2018-04-09T05:29:24.340Z,22.90
2018-04-09T05:31:51.828Z,21.47
2018-04-09T05:34:20.071Z,20.23
2018-04-09T05:36:47.575Z,21.40
2018-04-09T05:39:15.048Z,19.67
2018-04-09T05:41:42.528Z,19.03
2018-04-09T05:44:10.766Z,23.27
2018-04-09T05:46:38.239Z,20.13
2018-04-09T05:49:05.713Z,24.17
2018-04-09T05:51:33.206Z,21.17
2018-04-09T05:54:00.677Z,18.40
2018-04-09T05:56:28.914Z,18.50
2018-04-09T05:58:56.386Z,19.43
2018-04-09T06:01:23.857Z,20.20
2018-04-09T06:03:51.328Z,20.70
2018-04-09T06:06:19.563Z,19.77
2018-04-09T06:08:47.027Z,17.80
2018-04-09T06:11:14.499Z,23.83
2018-04-09T06:13:41.975Z,22.33
2018-04-09T06:16:10.274Z,26.40
2018-04-09T06:18:37.704Z,25.77
2018-04-09T06:21:05.174Z,24.80
2018-04-09T06:23:33.419Z,23.30
2018-04-09T06:26:00.895Z,28.93
2018-04-09T06:28:28.374Z,23.90
2018-04-09T06:30:56.631Z,26.60
2018-04-09T06:33:24.143Z,26.20
2018-04-09T06:35:51.607Z,24.50
2018-04-09T06:38:19.085Z,24.53
2018-04-09T06:40:46.554Z,21.23
2018-04-09T06:43:14.047Z,22.50
2018-04-09T06:45:41.506Z,22.03
2018-04-09T06:48:09.757Z,29.63
2018-04-09T06:50:37.237Z,23.33
2018-04-09T06:53:05.484Z,23.70
2018-04-09T06:55:32.962Z,26.90
2018-04-09T06:58:00.442Z,23.07
2018-04-09T07:00:27.906Z,26.07
2018-04-09T07:02:55.387Z,25.17
2018-04-09T07:05:22.866Z,22.30
2018-04-09T07:07:50.355Z,26.77
2018-04-09T07:10:18.605Z,21.20
2018-04-09T07:12:46.079Z,21.57
2018-04-09T07:15:13.543Z,23.37
2018-04-09T07:17:41.025Z,21.47
2018-04-09T07:20:09.254Z,27.93
2018-04-09T07:22:36.738Z,18.70
2018-04-09T07:25:04.211Z,24.87
2018-04-09T07:27:32.448Z,27.17
2018-04-09T07:29:59.919Z,29.07
2018-04-09T07:32:27.405Z,22.60
2018-04-09T07:34:55.642Z,29.33
2018-04-09T07:37:23.128Z,25.90
2018-04-09T07:39:50.603Z,17.07
2018-04-09T07:42:31.506Z,18.73
2018-04-09T07:44:58.971Z,15.00
2018-04-09T07:47:26.451Z,18.37
2018-04-09T07:49:53.926Z,18.07
2018-04-09T07:52:21.408Z,21.13
2018-04-09T07:54:49.640Z,20.67
2018-04-09T07:57:17.124Z,18.00
2018-04-09T07:59:44.605Z,21.53
2018-04-09T08:02:12.849Z,25.80
2018-04-09T08:04:40.314Z,22.17
2018-04-09T08:07:07.836Z,23.93
2018-04-09T08:09:35.312Z,22.87
2018-04-09T08:12:02.907Z,29.43
2018-04-09T08:14:30.383Z,24.43
2018-04-09T08:16:57.858Z,26.00
2018-04-09T08:19:25.368Z,27.93
2018-04-09T08:21:52.815Z,32.43
2018-04-09T08:24:20.283Z,33.33
2018-04-09T08:26:47.791Z,29.80
2018-04-09T08:29:15.270Z,33.23
2018-04-09T08:31:42.734Z,30.03
2018-04-09T08:34:10.206Z,35.27
2018-04-09T08:36:37.675Z,33.20
2018-04-09T08:39:05.186Z,33.00
2018-04-09T08:41:32.672Z,36.67
2018-04-09T08:44:00.928Z,36.37
2018-04-09T08:46:28.394Z,37.50
2018-04-09T08:48:55.866Z,38.90
2018-04-09T08:51:23.344Z,37.23
2018-04-09T08:53:50.820Z,35.43
2018-04-09T08:56:19.064Z,36.33
2018-04-09T08:58:46.545Z,32.37
2018-04-09T09:01:14.024Z,34.00
2018-04-09T09:03:42.267Z,32.67
2018-04-09T09:06:09.744Z,34.60
2018-04-09T09:08:37.244Z,34.30
2018-04-09T09:11:04.710Z,31.43
2018-04-09T09:13:32.189Z,31.70
2018-04-09T09:15:59.667Z,34.83
2018-04-09T09:18:27.140Z,31.33
2018-04-09T09:20:54.613Z,30.47
2018-04-09T09:23:22.863Z,32.53
2018-04-09T09:25:50.352Z,36.63
2018-04-09T09:28:18.587Z,33.63
2018-04-09T09:30:46.047Z,33.63
2018-04-09T09:33:13.526Z,35.93
2018-04-09T09:35:40.995Z,36.93
2018-04-09T09:38:09.235Z,35.23
2018-04-09T09:40:36.704Z,38.90
2018-04-09T09:43:04.183Z,40.80
2018-04-09T09:45:31.655Z,38.27
2018-04-09T09:47:59.901Z,36.70
2018-04-09T09:50:27.396Z,34.67
2018-04-09T09:52:55.634Z,34.17
2018-04-09T09:55:23.126Z,35.27
2018-04-09T09:57:51.373Z,32.33
2018-04-09T10:00:18.855Z,34.07
2018-04-09T10:02:52.948Z,31.77
2018-04-09T10:05:20.418Z,31.30
2018-04-09T10:07:48.696Z,33.00
2018-04-09T10:10:16.131Z,33.40
2018-04-09T10:12:43.951Z,31.43
2018-04-09T10:15:11.422Z,31.63
2018-04-09T10:17:38.913Z,34.00
2018-04-09T10:20:06.380Z,36.97
2018-04-09T10:22:33.853Z,37.13
2018-04-09T10:25:02.092Z,35.60
2018-04-09T10:27:29.572Z,33.47
2018-04-09T10:29:57.048Z,36.60
2018-04-09T10:32:24.520Z,36.87
2018-04-09T10:34:52.768Z,35.73
2018-04-09T10:37:20.237Z,36.27
2018-04-09T10:39:47.716Z,38.67
2018-04-09T10:42:15.946Z,38.60
2018-04-09T10:44:43.426Z,37.07
2018-04-09T10:47:10.896Z,38.50
2018-04-09T10:49:39.170Z,38.00
2018-04-09T10:52:06.665Z,40.47
2018-04-09T10:54:34.141Z,41.47
2018-04-09T10:57:01.616Z,38.27
2018-04-09T10:59:29.101Z,40.10
2018-04-09T11:01:56.570Z,37.23
2018-04-09T11:04:24.824Z,37.67
2018-04-09T11:06:52.298Z,39.13
2018-04-09T11:09:19.790Z,35.87
2018-04-09T11:11:47.255Z,38.13
2018-04-09T11:14:14.724Z,37.00
2018-04-09T11:16:42.204Z,40.30
2018-04-09T11:19:09.691Z,36.83
2018-04-09T11:21:37.163Z,37.07
2018-04-09T11:24:05.411Z,38.23
2018-04-09T11:26:32.880Z,38.17
2018-04-09T11:29:00.360Z,33.80
2018-04-09T11:31:28.598Z,36.70
2018-04-09T11:33:56.074Z,34.70
2018-04-09T11:36:23.538Z,32.73
2018-04-09T11:38:51.030Z,38.07
2018-04-09T11:41:19.266Z,34.67
2018-04-09T11:43:46.742Z,34.90
2018-04-09T11:46:14.241Z,30.10
2018-04-09T11:48:41.712Z,30.47
2018-04-09T11:51:09.980Z,31.70
2018-04-09T11:53:37.454Z,34.33
2018-04-09T11:56:04.929Z,31.27
2018-04-09T11:58:32.396Z,33.13
2018-04-09T12:00:59.876Z,30.47
2018-04-09T12:03:28.124Z,30.20
2018-04-09T12:05:58.934Z,33.20
2018-04-09T12:08:26.417Z,33.30
2018-04-09T12:10:53.885Z,35.80
2018-04-09T12:13:21.381Z,31.47
2018-04-09T12:15:48.904Z,31.13
2018-04-09T12:18:16.381Z,30.43
2018-04-09T12:20:44.619Z,33.60
2018-04-09T12:23:12.102Z,30.50
2018-04-09T12:25:39.587Z,30.80
2018-04-09T12:28:07.845Z,31.33
2018-04-09T12:30:35.318Z,30.57
2018-04-09T12:33:03.562Z,30.33
2018-04-09T12:35:31.025Z,33.90
2018-04-09T12:37:58.492Z,31.07
2018-04-09T12:40:25.970Z,29.77
2018-04-09T12:42:54.200Z,32.27
2018-04-09T12:45:21.675Z,30.90
2018-04-09T12:47:49.136Z,31.90
2018-04-09T12:50:16.615Z,30.73
2018-04-09T12:52:44.090Z,30.60
2018-04-09T12:55:12.337Z,30.77
2018-04-09T12:57:39.815Z,29.90
2018-04-09T13:00:08.063Z,32.70
2018-04-09T13:02:35.566Z,31.57
2018-04-09T13:05:03.055Z,30.43
2018-04-09T13:07:30.528Z,32.83
2018-04-09T13:09:58.004Z,28.93
2018-04-09T13:12:25.482Z,28.47
2018-04-09T13:14:53.733Z,34.93
2018-04-09T13:17:21.359Z,29.13
2018-04-09T13:19:48.825Z,29.50
2018-04-09T13:22:16.306Z,29.53
2018-04-09T13:24:43.786Z,31.20
2018-04-09T13:27:11.252Z,29.20
2018-04-09T13:29:39.492Z,30.93
2018-04-09T13:32:06.969Z,29.90
2018-04-09T13:34:34.450Z,31.77
2018-04-09T13:37:02.711Z,32.90
2018-04-09T13:39:30.167Z,31.03
2018-04-09T13:41:57.642Z,33.30
2018-04-09T13:44:25.886Z,34.93
2018-04-09T13:46:53.361Z,33.87
2018-04-09T13:49:20.863Z,33.13
2018-04-09T13:51:48.325Z,36.50
2018-04-09T13:54:15.807Z,37.00
2018-04-09T13:56:43.281Z,36.97
2018-04-09T13:59:10.766Z,31.90
2018-04-09T14:01:38.228Z,31.07
2018-04-09T14:04:06.480Z,32.50
2018-04-09T14:06:33.935Z,30.47
2018-04-09T14:09:01.424Z,31.90
2018-04-09T14:11:29.699Z,29.50
2018-04-09T14:13:57.964Z,28.90
2018-04-09T14:16:25.437Z,34.67
2018-04-09T14:18:53.698Z,27.47
2018-04-09T14:21:21.189Z,28.27
2018-04-09T14:23:49.428Z,27.60
2018-04-09T14:26:16.897Z,25.17
2018-04-09T14:28:44.378Z,25.10
2018-04-09T14:31:12.607Z,28.97
2018-04-09T14:33:40.085Z,25.70
2018-04-09T14:36:07.571Z,27.63
2018-04-09T14:38:35.810Z,28.73
2018-04-09T14:41:03.297Z,26.80
2018-04-09T14:43:31.554Z,26.50
2018-04-09T14:45:59.029Z,34.00
2018-04-09T14:48:26.502Z,30.33
2018-04-09T14:50:54.750Z,27.10
2018-04-09T14:53:22.226Z,30.60
2018-04-09T14:55:50.486Z,28.00
2018-04-09T14:58:17.949Z,31.23
2018-04-09T15:00:45.425Z,29.37
2018-04-09T15:03:14.046Z,30.37
2018-04-09T15:05:41.508Z,28.40
2018-04-09T15:08:08.990Z,28.87
2018-04-09T15:10:37.298Z,29.10
2018-04-09T15:13:04.761Z,34.03
2018-04-09T15:15:33.100Z,31.50
2018-04-09T15:18:00.608Z,30.67
2018-04-09T15:20:28.887Z,33.23
2018-04-09T15:22:56.348Z,30.13
2018-04-09T15:25:23.814Z,32.50
2018-04-09T15:27:51.289Z,32.73
2018-04-09T15:30:18.795Z,33.30
2018-04-09T15:32:46.259Z,34.53
2018-04-09T15:35:13.738Z,32.47
2018-04-09T15:37:42.045Z,32.37
2018-04-09T15:40:09.520Z,32.03
2018-04-09T15:42:36.990Z,33.10
2018-04-09T15:45:04.468Z,31.37
2018-04-09T15:47:31.945Z,31.60
2018-04-09T15:50:00.208Z,29.83
2018-04-09T15:52:27.672Z,32.13
2018-04-09T15:54:55.152Z,31.23
2018-04-09T15:57:23.387Z,33.40
2018-04-09T15:59:50.873Z,32.80
2018-04-09T16:02:18.336Z,33.53
2018-04-09T16:04:46.583Z,33.00
2018-04-09T16:07:14.052Z,36.73
2018-04-09T16:09:41.540Z,34.73
2018-04-09T16:12:09.778Z,31.87
2018-04-09T16:14:37.297Z,33.83
2018-04-09T16:17:04.759Z,30.63
2018-04-09T16:19:32.233Z,30.37
2018-04-09T16:21:59.696Z,35.17
2018-04-09T16:24:27.180Z,35.20
2018-04-09T16:26:54.640Z,32.20
2018-04-09T16:29:22.139Z,32.40
2018-04-09T16:31:49.626Z,35.33
2018-04-09T16:34:17.112Z,47.53
2018-04-09T16:36:44.584Z,35.50
2018-04-09T16:39:12.060Z,31.50
2018-04-09T16:41:40.311Z,36.20
2018-04-09T16:44:07.776Z,32.90
2018-04-09T16:46:35.267Z,38.37
2018-04-09T16:49:02.750Z,35.20
2018-04-09T16:51:30.235Z,42.13
2018-04-09T16:53:57.702Z,34.90
2018-04-09T16:56:25.190Z,35.17
2018-04-09T16:58:53.408Z,33.97
2018-04-09T17:01:20.884Z,38.43
2018-04-09T17:03:48.349Z,36.97
2018-04-09T17:14:55.938Z,37.30
2018-04-09T17:17:24.172Z,45.30
2018-04-09T17:19:51.668Z,37.10
2018-04-09T17:22:19.896Z,39.07
2018-04-09T17:24:47.370Z,40.37
2018-04-09T17:27:14.839Z,40.93
2018-04-09T17:29:42.321Z,40.10
2018-04-09T17:32:10.561Z,37.50
2018-04-09T17:34:38.051Z,38.30
2018-04-09T17:37:06.285Z,40.23
2018-04-09T17:39:33.761Z,40.77
2018-04-09T17:42:01.256Z,37.13
2018-04-09T17:44:29.502Z,35.63
2018-04-09T17:46:56.969Z,39.17
2018-04-09T17:49:24.470Z,43.50
2018-04-09T17:51:51.944Z,37.93
2018-04-09T17:54:19.419Z,43.17
2018-04-09T17:56:46.894Z,39.33
2018-04-09T17:59:14.361Z,40.10
2018-04-09T18:01:41.849Z,41.30
2018-04-09T18:04:10.095Z,38.07
2018-04-09T18:06:37.577Z,56.90
2018-04-09T18:09:05.811Z,51.50
2018-04-09T18:11:33.293Z,50.27
2018-04-09T18:14:00.780Z,47.53
2018-04-09T18:16:28.266Z,49.40
2018-04-09T18:18:55.741Z,50.63
2018-04-09T18:21:23.230Z,48.07
2018-04-09T18:23:50.726Z,47.10
2018-04-09T18:26:18.215Z,49.40
2018-04-09T18:28:45.685Z,45.97
2018-04-09T18:31:13.192Z,47.50
2018-04-09T18:33:41.420Z,41.97
2018-04-09T18:36:08.928Z,44.40
2018-04-09T18:38:36.512Z,43.17
2018-04-09T18:41:03.994Z,44.77
2018-04-09T18:43:32.197Z,46.23
2018-04-09T18:45:59.676Z,43.23
2018-04-09T18:48:27.909Z,50.60
2018-04-09T18:50:55.391Z,49.57
2018-04-09T18:53:23.729Z,47.17
2018-04-09T18:55:51.204Z,51.20
2018-04-09T18:58:18.681Z,49.53
2018-04-09T19:00:46.167Z,49.80
2018-04-09T19:03:14.400Z,46.50
2018-04-09T19:05:41.876Z,51.43
2018-04-09T19:08:09.333Z,52.00
2018-04-09T19:10:36.822Z,50.77
2018-04-09T19:13:04.301Z,45.40
2018-04-09T19:15:31.840Z,46.93
2018-04-09T19:18:00.087Z,45.27
2018-04-09T19:20:27.569Z,42.83
2018-04-09T19:22:55.809Z,46.00
2018-04-09T19:25:23.327Z,50.03
2018-04-09T19:27:51.549Z,49.07
2018-04-09T19:30:19.020Z,53.97
2018-04-09T19:32:46.493Z,51.77
2018-04-09T19:35:14.736Z,47.30
2018-04-09T19:37:47.976Z,50.30
2018-04-09T19:40:22.016Z,49.67
2018-04-09T19:42:49.496Z,49.63
2018-04-09T19:45:16.955Z,48.40
2018-04-09T19:47:44.429Z,51.97
2018-04-09T19:50:11.917Z,45.60
2018-04-09T19:52:40.156Z,48.20
2018-04-09T19:55:07.629Z,49.67
2018-04-09T19:57:35.117Z,43.83
2018-04-09T20:00:03.356Z,50.10
2018-04-09T20:02:30.846Z,39.87
2018-04-09T20:04:59.080Z,53.50
2018-04-09T20:07:26.569Z,43.57
2018-04-09T20:09:54.814Z,50.10
2018-04-09T20:12:22.290Z,47.77
2018-04-09T20:14:49.766Z,46.57
2018-04-09T20:17:18.001Z,41.40
2018-04-09T20:19:45.476Z,45.50
2018-04-09T20:22:13.717Z,47.33
2018-04-09T20:24:41.193Z,44.20
2018-04-09T20:27:08.686Z,52.50
2018-04-09T20:29:36.160Z,44.47
2018-04-09T20:32:04.408Z,50.87
2018-04-09T20:34:31.872Z,48.00
2018-04-09T20:36:59.345Z,48.80
2018-04-09T20:39:28.428Z,49.23
2018-04-09T20:41:55.867Z,46.43
2018-04-09T20:44:24.104Z,55.23
2018-04-09T20:46:51.582Z,46.10
2018-04-09T20:49:19.048Z,44.47
2018-04-09T20:51:46.527Z,57.33
2018-04-09T20:54:14.069Z,45.50
2018-04-09T20:56:41.550Z,51.20
2018-04-09T20:59:09.034Z,53.87
2018-04-09T21:01:37.264Z,66.37
2018-04-09T21:04:04.749Z,70.10
2018-04-09T21:06:32.230Z,60.77
2018-04-09T21:09:00.463Z,63.57
2018-04-09T21:11:29.721Z,53.40
2018-04-09T21:13:57.958Z,60.70
2018-04-09T21:16:25.429Z,57.47
2018-04-09T21:18:52.908Z,51.63
2018-04-09T21:21:20.392Z,47.60
2018-04-09T21:23:47.873Z,50.33
2018-04-09T21:26:15.340Z,47.80
2018-04-09T21:28:42.826Z,54.87
2018-04-09T21:31:11.065Z,47.53
2018-04-09T21:33:38.541Z,52.27
2018-04-09T21:36:06.009Z,48.17
2018-04-09T21:38:33.489Z,53.13
2018-04-09T21:41:01.732Z,50.20
2018-04-09T21:43:29.217Z,41.60
2018-04-09T21:45:57.450Z,53.77
2018-04-09T21:48:24.929Z,50.90
2018-04-09T21:50:52.396Z,45.20
2018-04-09T21:53:19.879Z,45.97
2018-04-09T21:55:48.108Z,45.10
2018-04-09T21:58:15.592Z,43.80
2018-04-09T22:00:43.076Z,42.37
2018-04-09T22:03:11.304Z,44.13
2018-04-09T22:05:38.786Z,43.53
2018-04-09T22:08:06.253Z,49.43
2018-04-09T22:10:34.497Z,43.50
2018-04-09T22:13:02.017Z,42.70
2018-04-09T22:15:29.508Z,49.90
2018-04-09T22:17:56.967Z,61.40
2018-04-09T22:20:24.439Z,58.37
2018-04-09T22:22:51.908Z,69.97
2018-04-09T22:25:19.397Z,64.07
2018-04-09T22:27:46.875Z,57.93
2018-04-09T22:30:14.349Z,53.57
2018-04-09T22:32:41.812Z,50.80
2018-04-09T22:35:09.284Z,48.63
2018-04-09T22:37:36.763Z,46.80
2018-04-09T22:40:04.336Z,49.17
2018-04-09T22:42:32.597Z,54.47
2018-04-09T22:45:00.073Z,44.17
2018-04-09T22:47:28.303Z,50.73
2018-04-09T22:49:55.780Z,48.67
2018-04-09T22:52:23.262Z,52.83
2018-04-09T22:54:51.544Z,54.53
2018-04-09T22:57:19.780Z,56.10
2018-04-09T22:59:47.265Z,54.00
2018-04-09T23:02:14.783Z,58.70
2018-04-09T23:04:42.226Z,56.60
2018-04-09T23:07:09.718Z,56.00
2018-04-09T23:09:37.167Z,57.57
2018-04-09T23:12:04.645Z,50.90
2018-04-09T23:14:32.134Z,55.40
2018-04-09T23:17:00.365Z,48.97
2018-04-09T23:19:27.832Z,54.30
2018-04-09T23:21:55.323Z,50.53
2018-04-09T23:24:23.544Z,50.10
2018-04-09T23:26:51.019Z,55.73
2018-04-09T23:29:18.479Z,52.80
2018-04-09T23:31:45.978Z,63.50
2018-04-09T23:34:14.208Z,63.63
2018-04-09T23:36:41.694Z,48.20
2018-04-09T23:39:09.150Z,54.03
2018-04-09T23:41:36.630Z,54.23
2018-04-09T23:44:04.867Z,57.43
2018-04-09T23:46:32.384Z,50.53
2018-04-09T23:48:59.851Z,51.90
2018-04-09T23:51:27.357Z,53.27
2018-04-09T23:56:48.029Z,49.63
2018-04-09T23:59:15.496Z,46.77
